createdAt,value
2023-03-26T00:02:16.964Z,5.73
2023-03-26T00:05:05.160Z,5.43
2023-03-26T00:07:52.967Z,5.60
2023-03-26T00:10:41.461Z,4.80
2023-03-26T00:13:29.082Z,4.73
2023-03-26T00:16:18.423Z,5.20
2023-03-26T00:19:05.946Z,5.53
2023-03-26T00:21:53.425Z,5.80
2023-03-26T00:24:41.154Z,5.83
2023-03-26T00:27:29.137Z,6.57
2023-03-26T00:30:17.029Z,5.20
2023-03-26T00:33:04.520Z,5.47
2023-03-26T00:35:56.802Z,5.23
2023-03-26T00:38:45.061Z,5.43
2023-03-26T00:41:32.754Z,5.43
2023-03-26T00:44:20.828Z,5.53
2023-03-26T00:47:08.443Z,6.10
2023-03-26T00:49:57.469Z,5.37
2023-03-26T00:52:46.177Z,5.97
2023-03-26T00:55:34.402Z,5.43
2023-03-26T00:58:22.173Z,5.80
2023-03-26T01:01:14.403Z,5.30
2023-03-26T01:04:24.012Z,5.33
2023-03-26T01:07:13.412Z,4.60
2023-03-26T01:10:00.939Z,4.30
2023-03-26T01:12:48.313Z,3.77
2023-03-26T01:15:37.280Z,4.37
2023-03-26T01:18:26.458Z,4.30
2023-03-26T01:21:14.767Z,4.07
2023-03-26T01:24:05.116Z,4.03
2023-03-26T01:27:02.079Z,3.90
2023-03-26T01:29:56.526Z,4.40
2023-03-26T01:32:44.225Z,3.97
2023-03-26T01:35:44.965Z,3.73
2023-03-26T01:38:46.700Z,3.50
2023-03-26T01:41:34.160Z,3.90
2023-03-26T01:44:21.512Z,3.93
2023-03-26T01:47:09.341Z,4.10
2023-03-26T01:49:56.739Z,3.63
2023-03-26T01:52:44.181Z,3.97
2023-03-26T01:55:41.671Z,4.07
2023-03-26T01:58:36.836Z,4.13
2023-03-26T02:01:27.806Z,4.50
2023-03-26T02:04:18.192Z,4.10
2023-03-26T02:07:24.486Z,5.20
2023-03-26T02:10:14.497Z,5.10
2023-03-26T02:13:02.094Z,4.60
2023-03-26T02:16:02.755Z,4.00
2023-03-26T02:18:55.678Z,5.63
2023-03-26T02:21:43.168Z,4.03
2023-03-26T02:24:30.683Z,3.47
2023-03-26T02:27:18.380Z,3.70
2023-03-26T02:30:07.009Z,3.20
2023-03-26T02:32:54.593Z,2.73
2023-03-26T02:35:45.816Z,2.70
2023-03-26T02:38:35.117Z,2.60
2023-03-26T02:41:22.616Z,2.37
2023-03-26T02:44:10.241Z,2.00
2023-03-26T02:46:57.627Z,2.47
2023-03-26T02:49:45.258Z,2.30
2023-03-26T02:52:33.612Z,2.13
2023-03-26T02:55:21.022Z,2.13
2023-03-26T02:58:08.452Z,1.60
2023-03-26T03:00:55.956Z,2.03
2023-03-26T03:03:43.348Z,1.60
2023-03-26T03:06:30.954Z,1.73
2023-03-26T03:09:18.941Z,1.63
2023-03-26T03:12:06.432Z,2.07
2023-03-26T03:14:54.165Z,1.87
2023-03-26T03:17:41.639Z,2.37
2023-03-26T03:20:30.337Z,1.80
2023-03-26T03:23:17.936Z,1.63
2023-03-26T03:26:06.667Z,2.10
2023-03-26T03:28:56.423Z,2.00
2023-03-26T03:31:43.860Z,2.23
2023-03-26T03:34:31.298Z,1.87
2023-03-26T03:37:19.757Z,2.47
2023-03-26T03:40:08.145Z,2.00
2023-03-26T03:42:55.814Z,2.20
2023-03-26T03:45:43.274Z,2.50
2023-03-26T03:48:30.652Z,2.17
2023-03-26T03:51:18.469Z,2.30
2023-03-26T03:54:05.986Z,1.83
2023-03-26T03:56:53.946Z,1.80
2023-03-26T03:59:47.899Z,1.80
2023-03-26T04:02:36.173Z,2.13
2023-03-26T04:05:23.672Z,2.37
2023-03-26T04:08:11.052Z,1.40
2023-03-26T04:10:58.422Z,1.77
2023-03-26T04:13:45.842Z,1.50
2023-03-26T04:16:33.271Z,1.33
2023-03-26T04:19:20.704Z,1.80
2023-03-26T04:22:09.352Z,1.80
2023-03-26T04:24:57.060Z,1.80
2023-03-26T04:27:44.755Z,2.03
2023-03-26T04:30:33.538Z,2.30
2023-03-26T04:33:21.080Z,1.53
2023-03-26T04:36:10.102Z,2.00
2023-03-26T04:38:58.414Z,1.97
2023-03-26T04:41:46.922Z,1.83
2023-03-26T04:44:34.896Z,2.00
2023-03-26T04:47:23.486Z,1.80
2023-03-26T04:50:11.489Z,1.90
2023-03-26T04:52:59.070Z,1.93
2023-03-26T04:56:06.741Z,2.33
2023-03-26T04:58:56.893Z,2.20
2023-03-26T05:01:45.907Z,2.77
2023-03-26T05:04:36.651Z,2.53
2023-03-26T05:07:24.208Z,2.20
2023-03-26T05:10:13.236Z,2.97
2023-03-26T05:13:00.818Z,2.60
2023-03-26T05:15:48.259Z,2.77
2023-03-26T05:18:36.106Z,2.10
2023-03-26T05:21:23.520Z,2.23
2023-03-26T05:24:11.262Z,2.60
2023-03-26T05:26:58.753Z,2.20
2023-03-26T05:29:46.531Z,2.20
2023-03-26T05:32:34.707Z,2.67
2023-03-26T05:35:22.397Z,2.30
2023-03-26T05:38:11.134Z,2.57
2023-03-26T05:40:59.580Z,1.80
2023-03-26T05:43:48.278Z,2.03
2023-03-26T05:46:35.913Z,1.63
2023-03-26T05:49:23.456Z,2.07
2023-03-26T05:52:15.085Z,2.07
2023-03-26T05:55:02.823Z,2.30
2023-03-26T05:57:50.205Z,2.00
2023-03-26T06:00:39.249Z,2.17
2023-03-26T06:03:26.969Z,2.13
2023-03-26T06:06:16.359Z,2.37
2023-03-26T06:09:04.450Z,2.60
2023-03-26T06:11:51.886Z,2.30
2023-03-26T06:14:39.398Z,2.43
2023-03-26T06:17:26.855Z,1.97
2023-03-26T06:20:14.559Z,2.07
2023-03-26T06:23:01.933Z,2.03
2023-03-26T06:25:49.701Z,2.93
2023-03-26T06:28:37.146Z,3.03
2023-03-26T06:31:24.657Z,2.00
2023-03-26T06:34:12.088Z,2.67
2023-03-26T06:36:59.447Z,2.67
2023-03-26T06:39:46.897Z,2.57
2023-03-26T06:43:07.614Z,3.10
2023-03-26T06:45:41.730Z,2.60
2023-03-26T06:48:29.172Z,2.83
2023-03-26T06:51:16.784Z,2.97
2023-03-26T06:54:04.252Z,2.90
2023-03-26T06:56:51.686Z,4.70
2023-03-26T06:59:39.103Z,3.13
2023-03-26T07:02:26.703Z,3.10
2023-03-26T07:05:14.639Z,3.07
2023-03-26T07:08:02.876Z,3.50
2023-03-26T07:10:50.307Z,3.20
2023-03-26T07:13:39.852Z,3.03
2023-03-26T07:16:27.278Z,2.57
2023-03-26T07:19:14.865Z,2.93
2023-03-26T07:22:02.408Z,2.70
2023-03-26T07:24:50.200Z,3.23
2023-03-26T07:27:55.751Z,3.20
2023-03-26T07:30:52.381Z,3.73
2023-03-26T07:33:39.765Z,2.77
2023-03-26T07:36:31.909Z,3.57
2023-03-26T07:39:19.260Z,3.53
2023-03-26T07:42:17.538Z,3.17
2023-03-26T07:45:18.137Z,3.33
2023-03-26T07:48:13.475Z,3.00
2023-03-26T07:51:02.818Z,3.10
2023-03-26T07:53:50.328Z,3.77
2023-03-26T07:56:49.560Z,3.03
2023-03-26T07:59:39.829Z,3.87
2023-03-26T08:02:49.265Z,3.60
2023-03-26T08:05:42.800Z,4.03
2023-03-26T08:08:35.931Z,3.57
2023-03-26T08:11:46.600Z,3.63
2023-03-26T08:14:56.687Z,3.30
2023-03-26T08:17:47.109Z,2.97
2023-03-26T08:20:47.778Z,3.37
2023-03-26T08:23:50.694Z,3.37
2023-03-26T08:27:02.563Z,3.13
2023-03-26T08:29:50.008Z,3.57
2023-03-26T08:32:37.681Z,2.63
2023-03-26T08:35:26.346Z,3.37
2023-03-26T08:38:14.898Z,6.40
2023-03-26T08:41:02.274Z,9.50
2023-03-26T08:44:01.027Z,8.50
2023-03-26T08:47:08.072Z,21.63
2023-03-26T08:49:55.896Z,6.80
2023-03-26T08:53:09.853Z,4.23
2023-03-26T08:56:00.244Z,6.90
2023-03-26T08:58:47.650Z,4.23
2023-03-26T09:01:53.853Z,7.23
2023-03-26T09:05:00.501Z,10.37
2023-03-26T09:07:53.879Z,20.40
2023-03-26T09:10:53.552Z,15.73
2023-03-26T09:13:50.254Z,10.97
2023-03-26T09:16:56.291Z,3.40
2023-03-26T09:19:43.645Z,3.70
2023-03-26T09:22:31.206Z,3.43
2023-03-26T09:25:35.140Z,3.60
2023-03-26T09:28:41.232Z,3.90
2023-03-26T09:31:51.283Z,3.40
2023-03-26T09:34:57.858Z,3.10
2023-03-26T09:37:57.376Z,3.40
2023-03-26T09:41:00.141Z,3.73
2023-03-26T09:43:51.326Z,3.57
2023-03-26T09:46:38.690Z,3.40
2023-03-26T09:49:29.147Z,2.93
2023-03-26T09:52:35.292Z,3.90
2023-03-26T09:55:26.018Z,2.87
2023-03-26T09:58:25.686Z,2.53
2023-03-26T10:01:38.059Z,3.57
2023-03-26T10:04:33.194Z,3.43
2023-03-26T10:07:38.816Z,2.80
2023-03-26T10:10:50.406Z,3.03
2023-03-26T10:13:53.330Z,3.13
2023-03-26T10:16:46.492Z,3.07
2023-03-26T10:19:37.687Z,3.07
2023-03-26T10:22:33.975Z,3.10
2023-03-26T10:25:21.381Z,3.37
2023-03-26T10:28:22.507Z,3.00
2023-03-26T10:31:28.496Z,2.83
2023-03-26T10:34:31.672Z,2.90
2023-03-26T10:37:54.752Z,2.63
2023-03-26T10:41:00.899Z,2.90
2023-03-26T10:43:57.819Z,3.10
2023-03-26T10:46:52.842Z,3.50
2023-03-26T10:49:53.866Z,2.73
2023-03-26T10:52:55.702Z,3.20
2023-03-26T10:55:46.677Z,2.67
2023-03-26T10:58:48.822Z,3.20
2023-03-26T11:01:37.455Z,2.63
2023-03-26T11:04:24.869Z,2.70
2023-03-26T11:07:16.380Z,2.97
2023-03-26T11:10:10.246Z,3.03
2023-03-26T11:13:00.638Z,3.30
2023-03-26T11:16:00.508Z,2.40
2023-03-26T11:19:05.528Z,2.87
2023-03-26T11:21:53.074Z,2.80
2023-03-26T11:24:48.040Z,2.80
2023-03-26T11:27:56.901Z,2.67
2023-03-26T11:31:02.903Z,2.70
2023-03-26T11:33:53.599Z,2.87
2023-03-26T11:36:45.017Z,3.53
2023-03-26T11:39:37.989Z,3.43
2023-03-26T11:42:25.714Z,3.17
2023-03-26T11:45:20.656Z,2.73
2023-03-26T11:48:17.171Z,3.07
2023-03-26T11:51:17.478Z,2.67
2023-03-26T11:54:06.516Z,2.90
2023-03-26T11:57:05.775Z,2.60
2023-03-26T12:00:07.862Z,2.90
2023-03-26T12:02:57.597Z,3.43
2023-03-26T12:05:49.443Z,2.97
2023-03-26T12:08:40.683Z,2.70
2023-03-26T12:11:32.636Z,3.10
2023-03-26T12:14:26.709Z,2.90
2023-03-26T12:17:34.197Z,3.33
2023-03-26T12:20:27.540Z,2.70
2023-03-26T12:23:34.872Z,3.20
2023-03-26T12:26:36.851Z,4.18
2023-03-26T12:29:24.229Z,3.72
2023-03-26T12:32:14.832Z,3.43
2023-03-26T12:35:06.911Z,3.13
2023-03-26T12:37:55.194Z,3.03
2023-03-26T12:40:43.238Z,3.40
2023-03-26T12:44:54.711Z,3.17
2023-03-26T12:47:58.041Z,2.67
2023-03-26T12:50:16.086Z,2.97
2023-03-26T12:53:12.529Z,2.77
2023-03-26T12:56:17.337Z,3.20
2023-03-26T12:59:23.344Z,2.90
2023-03-26T13:02:25.514Z,3.30
2023-03-26T13:05:34.085Z,2.70
2023-03-26T13:08:24.483Z,3.00
2023-03-26T13:11:17.745Z,2.77
2023-03-26T13:14:20.646Z,3.00
2023-03-26T13:17:23.229Z,2.93
2023-03-26T13:20:21.702Z,2.57
2023-03-26T13:23:41.947Z,3.17
2023-03-26T13:26:45.328Z,2.60
2023-03-26T13:29:46.321Z,2.80
2023-03-26T13:32:39.822Z,2.60
2023-03-26T13:35:30.645Z,2.80
2023-03-26T13:38:18.557Z,3.17
2023-03-26T13:41:08.764Z,2.77
2023-03-26T13:44:00.539Z,3.00
2023-03-26T13:47:01.092Z,3.20
2023-03-26T13:49:50.656Z,3.40
2023-03-26T13:52:45.661Z,2.70
2023-03-26T13:55:36.197Z,2.87
2023-03-26T13:58:23.585Z,2.80
2023-03-26T14:01:20.334Z,2.83
2023-03-26T14:04:17.659Z,2.57
2023-03-26T14:07:23.352Z,2.67
2023-03-26T14:10:12.680Z,2.73
2023-03-26T14:13:06.892Z,2.83
2023-03-26T14:15:57.950Z,2.90
2023-03-26T14:18:52.957Z,2.63
2023-03-26T14:21:43.389Z,2.80
2023-03-26T14:24:42.701Z,2.50
2023-03-26T14:27:52.263Z,2.57
2023-03-26T14:30:56.433Z,2.47
2023-03-26T14:33:53.198Z,2.83
2023-03-26T14:36:59.124Z,2.60
2023-03-26T14:39:49.313Z,2.50
2023-03-26T14:42:36.687Z,2.77
2023-03-26T14:45:24.067Z,2.70
2023-03-26T14:48:31.624Z,2.70
2023-03-26T14:51:22.150Z,2.60
2023-03-26T14:54:12.293Z,2.73
2023-03-26T14:57:09.785Z,2.30
2023-03-26T15:00:19.944Z,2.97
2023-03-26T15:03:10.345Z,2.27
2023-03-26T15:06:09.705Z,2.57
2023-03-26T15:09:09.175Z,2.37
2023-03-26T15:12:12.255Z,2.43
2023-03-26T15:15:30.017Z,2.90
2023-03-26T15:18:30.721Z,2.83
2023-03-26T15:21:18.086Z,2.40
2023-03-26T15:24:23.553Z,2.97
2023-03-26T15:27:13.827Z,2.90
2023-03-26T15:30:24.982Z,2.47
2023-03-26T15:33:34.609Z,3.00
2023-03-26T15:36:46.389Z,2.17
2023-03-26T15:39:59.490Z,3.13
2023-03-26T15:43:10.913Z,2.50
2023-03-26T15:46:10.758Z,2.90
2023-03-26T15:49:06.434Z,2.10
2023-03-26T15:52:17.403Z,3.33
2023-03-26T15:55:17.361Z,2.97
2023-03-26T15:58:27.352Z,2.80
2023-03-26T16:01:25.842Z,3.53
2023-03-26T16:04:22.440Z,2.30
2023-03-26T16:07:26.203Z,2.50
2023-03-26T16:10:28.419Z,2.77
2023-03-26T16:13:15.851Z,2.80
2023-03-26T16:16:03.782Z,2.67
2023-03-26T16:18:54.377Z,2.60
2023-03-26T16:22:00.479Z,2.67
2023-03-26T16:25:26.543Z,2.50
2023-03-26T16:28:32.569Z,2.60
2023-03-26T16:31:38.053Z,2.30
2023-03-26T16:34:28.395Z,2.37
2023-03-26T16:37:37.070Z,2.47
2023-03-26T16:40:28.625Z,3.33
2023-03-26T16:43:16.028Z,3.20
2023-03-26T16:46:21.461Z,2.60
2023-03-26T16:49:25.465Z,2.67
2023-03-26T16:52:23.299Z,2.10
2023-03-26T16:55:20.002Z,2.00
2023-03-26T16:58:23.658Z,2.37
2023-03-26T17:01:32.413Z,2.47
2023-03-26T17:04:23.448Z,2.20
2023-03-26T17:07:17.229Z,2.47
2023-03-26T17:10:05.689Z,2.90
2023-03-26T17:13:01.818Z,2.10
2023-03-26T17:15:55.496Z,2.03
2023-03-26T17:19:09.126Z,2.03
2023-03-26T17:22:18.468Z,2.30
2023-03-26T17:25:20.409Z,1.60
2023-03-26T17:28:33.787Z,1.87
2023-03-26T17:31:32.481Z,2.53
2023-03-26T17:34:38.698Z,1.93
2023-03-26T17:37:31.291Z,2.00
2023-03-26T17:40:48.156Z,2.03
2023-03-26T17:43:52.079Z,2.30
2023-03-26T17:46:39.455Z,1.87
2023-03-26T17:49:31.054Z,2.10
2023-03-26T17:52:35.624Z,1.90
2023-03-26T17:55:25.885Z,1.67
2023-03-26T17:58:22.378Z,1.90
2023-03-26T18:01:32.093Z,1.90
2023-03-26T18:04:22.197Z,1.70
2023-03-26T18:07:18.841Z,1.73
2023-03-26T18:10:28.864Z,1.60
2023-03-26T18:13:16.382Z,1.70
2023-03-26T18:16:03.802Z,1.60
2023-03-26T18:18:51.141Z,1.20
2023-03-26T18:21:39.554Z,1.50
2023-03-26T18:24:29.168Z,1.40
2023-03-26T18:27:18.790Z,1.40
2023-03-26T18:30:16.863Z,1.03
2023-03-26T18:33:12.180Z,1.53
2023-03-26T18:35:59.746Z,1.50
2023-03-26T18:38:48.742Z,1.53
2023-03-26T18:41:39.456Z,1.43
2023-03-26T18:44:26.946Z,1.30
2023-03-26T18:47:15.121Z,1.33
2023-03-26T18:50:03.174Z,1.80
2023-03-26T18:52:51.053Z,1.57
2023-03-26T18:55:39.742Z,1.60
2023-03-26T18:58:27.431Z,1.70
2023-03-26T19:01:24.961Z,1.20
2023-03-26T19:04:13.778Z,1.23
2023-03-26T19:07:01.691Z,1.37
2023-03-26T19:09:49.845Z,1.17
2023-03-26T19:12:39.216Z,1.27
2023-03-26T19:15:28.091Z,1.60
2023-03-26T19:18:18.218Z,1.67
2023-03-26T19:21:05.814Z,1.33
2023-03-26T19:23:54.219Z,1.40
2023-03-26T19:26:41.846Z,1.57
2023-03-26T19:29:30.911Z,1.40
2023-03-26T19:32:22.560Z,1.37
2023-03-26T19:35:21.099Z,1.60
2023-03-26T19:38:20.571Z,1.47
2023-03-26T19:41:17.440Z,1.40
2023-03-26T19:44:17.485Z,1.23
2023-03-26T19:47:07.701Z,1.40
2023-03-26T19:50:01.746Z,1.40
2023-03-26T19:52:49.120Z,1.20
2023-03-26T19:55:36.540Z,1.40
2023-03-26T19:58:25.842Z,1.10
2023-03-26T20:01:20.829Z,1.20
2023-03-26T20:04:11.075Z,1.40
2023-03-26T20:07:00.966Z,1.33
2023-03-26T20:09:52.362Z,1.40
2023-03-26T20:12:39.941Z,1.40
2023-03-26T20:15:29.273Z,1.00
2023-03-26T20:18:16.985Z,1.27
2023-03-26T20:21:10.122Z,1.53
2023-03-26T20:23:57.535Z,1.13
2023-03-26T20:26:45.603Z,1.00
2023-03-26T20:29:33.154Z,1.07
2023-03-26T20:32:23.629Z,1.03
2023-03-26T20:35:18.976Z,1.13
2023-03-26T20:38:36.622Z,1.20
2023-03-26T20:41:27.087Z,1.37
2023-03-26T20:44:16.438Z,1.37
2023-03-26T20:47:05.311Z,1.20
2023-03-26T20:49:52.941Z,1.60
2023-03-26T20:52:41.525Z,1.00
2023-03-26T20:55:29.078Z,1.10
2023-03-26T20:58:17.764Z,1.07
2023-03-26T21:01:05.651Z,1.30
2023-03-26T21:03:53.041Z,1.27
2023-03-26T21:06:40.437Z,1.20
2023-03-26T21:09:35.130Z,1.43
2023-03-26T21:12:30.412Z,1.20
2023-03-26T21:15:23.420Z,1.30
2023-03-26T21:18:11.616Z,1.37
2023-03-26T21:21:17.974Z,2.17
2023-03-26T21:24:15.353Z,1.40
2023-03-26T21:27:10.755Z,1.23
2023-03-26T21:29:59.889Z,1.40
2023-03-26T21:32:47.613Z,1.40
2023-03-26T21:35:35.373Z,1.50
2023-03-26T21:38:23.806Z,1.37
2023-03-26T21:41:23.468Z,2.17
2023-03-26T21:44:11.029Z,1.20
2023-03-26T21:46:58.694Z,1.80
2023-03-26T21:49:46.194Z,1.43
2023-03-26T21:52:33.732Z,1.50
2023-03-26T21:55:22.385Z,1.63
2023-03-26T21:58:12.691Z,1.47
2023-03-26T22:01:11.354Z,1.03
2023-03-26T22:04:03.197Z,1.40
2023-03-26T22:07:09.647Z,1.43
2023-03-26T22:09:57.196Z,1.40
2023-03-26T22:12:44.775Z,1.80
2023-03-26T22:15:32.231Z,1.00
2023-03-26T22:18:21.527Z,1.30
2023-03-26T22:21:08.951Z,1.47
2023-03-26T22:23:56.358Z,1.70
2023-03-26T22:26:43.765Z,1.67
2023-03-26T22:29:31.543Z,1.40
2023-03-26T22:32:19.040Z,1.40
2023-03-26T22:35:07.082Z,1.53
2023-03-26T22:38:01.036Z,1.50
2023-03-26T22:40:55.593Z,1.60
2023-03-26T22:43:44.125Z,1.30
2023-03-26T22:46:31.533Z,1.70
2023-03-26T22:49:19.034Z,1.53
2023-03-26T22:52:10.051Z,1.73
2023-03-26T22:54:57.776Z,1.50
2023-03-26T22:57:45.310Z,1.50
2023-03-26T23:00:32.755Z,1.63
2023-03-26T23:03:21.351Z,2.37
2023-03-26T23:06:22.893Z,1.30
2023-03-26T23:09:10.512Z,1.60
2023-03-26T23:11:58.096Z,1.40
2023-03-26T23:14:45.495Z,1.50
2023-03-26T23:17:36.449Z,1.40
2023-03-26T23:20:23.862Z,1.50
2023-03-26T23:23:11.243Z,1.40
2023-03-26T23:25:59.786Z,1.50
2023-03-26T23:28:47.755Z,1.50
2023-03-26T23:31:35.216Z,1.27
2023-03-26T23:34:23.132Z,1.50
2023-03-26T23:37:11.014Z,1.60
2023-03-26T23:39:59.208Z,1.40
2023-03-26T23:42:47.368Z,1.40
2023-03-26T23:45:34.896Z,1.40
2023-03-26T23:48:23.229Z,1.23
2023-03-26T23:51:12.196Z,1.80
2023-03-26T23:54:00.013Z,1.43
2023-03-26T23:56:47.915Z,1.57
2023-03-26T23:59:35.556Z,1.30
